Atlanta, Georgia
Traffic Map
Current Weather Conditions
Atlanta, Georgia
Few Clouds
Few Clouds
88°
Feels Like: 89°
Wind Chill: 88° Ceiling: Unl
Heat Index: 89° Visibility: 10mi
Dew Point: 63° Wind: 6mph
Humidity: 43% Direction: ° ()
Pressure: 30.03in Gusts: 0mph
Raw Report DataKATL 011652Z VRB05KT 10SM FEW045 FEW250 31/17 A3003 RMK AO2 SLP157 T03110172
Traffic Incident Summary
Active as of:
Severity:
Category:
InformationThere was an issue retrieving the traffic information for this location. Please try a different location or try again shortly.
Advertisements
Track Severe Weather on mobile